This is the latest recevied weather packets stored in our database for station/object OK1ALX-6. If no packets are shown the sender has not sent any weather packets the latest 10 day(s).
| Time | Temp. | Humidity | Pressure | Rain* | Wind** | Luminosity | Snow |
|---|---|---|---|---|---|---|---|
| 1777809003 | 22.78° C | 34% | 1019.9 hPa | 0 mm | - | 650 W/m² | - |
| 1777808403 | 22.78° C | 35% | 1020.3 hPa | 0 mm | - | 632 W/m² | - |
| 1777807803 | 22.78° C | 35% | 1020.2 hPa | 0 mm | - | 582 W/m² | - |
| 1777807203 | 22.78° C | 36% | 1020.4 hPa | 0 mm | - | 618 W/m² | - |
| 1777806603 | 22.22° C | 36% | 1020.5 hPa | 0 mm | - | 616 W/m² | - |
| 1777806003 | 21.67° C | 38% | 1020.9 hPa | 0 mm | - | 650 W/m² | - |
| 1777805403 | 22.22° C | 36% | 1020.8 hPa | 0 mm | - | 669 W/m² | - |
| 1777804803 | 21.67° C | 36% | 1021.1 hPa | 0 mm | - | 640 W/m² | - |
| 1777804203 | 21.67° C | 37% | 1021.2 hPa | 0 mm | - | 643 W/m² | - |
| 1777803606 | 21.67° C | 40% | 1021.1 hPa | 0 mm | - | 648 W/m² | - |
| 1777803003 | 21.67° C | 38% | 1021.3 hPa | 0 mm | - | 692 W/m² | - |
| 1777802403 | 21.11° C | 39% | 1021.6 hPa | 0 mm | - | 719 W/m² | - |
| 1777801803 | 21.11° C | 40% | 1021.6 hPa | 0 mm | - | 726 W/m² | - |
| 1777801203 | 21.11° C | 40% | 1021.7 hPa | 0 mm | - | 652 W/m² | - |
| 1777800603 | 20.56° C | 41% | 1021.8 hPa | 0 mm | - | 715 W/m² | - |
| 1777800003 | 20.56° C | 41% | 1021.9 hPa | 0 mm | - | 684 W/m² | - |
| 1777799403 | 20.56° C | 43% | 1022 hPa | 0 mm | - | 593 W/m² | - |
| 1777798803 | 20° C | 42% | 1022.3 hPa | 0 mm | - | 667 W/m² | - |
| 1777798203 | 20° C | 44% | 1022.2 hPa | 0 mm | - | 670 W/m² | - |
| 1777797603 | 19.44° C | 44% | 1022.5 hPa | 0 mm | - | 616 W/m² | - |
| 1777797003 | 19.44° C | 45% | 1022.5 hPa | 0 mm | - | 625 W/m² | - |
| 1777796403 | 19.44° C | 45% | 1022.6 hPa | 0 mm | - | 619 W/m² | - |
| 1777795803 | 18.89° C | 46% | 1022.5 hPa | 0 mm | - | 608 W/m² | - |
| 1777795203 | 18.33° C | 46% | 1022.8 hPa | 0 mm | - | 560 W/m² | - |
| 1777794603 | 17.78° C | 47% | 1022.9 hPa | 0 mm | - | 546 W/m² | - |
* Rain latest hour (hover to see other rain measurements)
** Current wind speed in m/s (hover to see current wind gust speed)